createdAt,value
2022-08-18T00:01:48.243Z,7.57
2022-08-18T00:04:34.938Z,7.15
2022-08-18T00:07:09.599Z,6.97
2022-08-18T00:09:41.982Z,7.03
2022-08-18T00:12:57.118Z,6.88
2022-08-18T00:15:42.317Z,7.05
2022-08-18T00:18:21.061Z,7.28
2022-08-18T00:20:52.996Z,7.25
2022-08-18T00:23:23.715Z,7.40
2022-08-18T00:25:53.474Z,7.43
2022-08-18T00:30:55.975Z,6.82
2022-08-18T00:33:26.109Z,7.30
2022-08-18T00:36:01.765Z,7.10
2022-08-18T00:38:31.877Z,6.60
2022-08-18T00:41:02.846Z,6.45
2022-08-18T00:44:03.822Z,7.45
2022-08-18T00:46:37.409Z,7.47
2022-08-18T00:49:09.184Z,6.35
2022-08-18T00:51:53.267Z,7.30
2022-08-18T00:54:25.629Z,6.72
2022-08-18T00:56:59.837Z,7.53
2022-08-18T00:59:35.474Z,7.53
2022-08-18T01:02:19.556Z,6.65
2022-08-18T01:05:17.120Z,7.15
2022-08-18T01:07:52.358Z,7.32
2022-08-18T01:10:28.357Z,7.50
2022-08-18T01:13:03.115Z,6.57
2022-08-18T01:15:33.614Z,7.05
2022-08-18T01:18:25.149Z,6.93
2022-08-18T01:21:31.527Z,6.75
2022-08-18T01:24:04.391Z,6.70
2022-08-18T01:26:35.072Z,6.55
2022-08-18T01:29:19.056Z,6.82
2022-08-18T01:32:00.773Z,6.85
2022-08-18T01:34:31.007Z,6.88
2022-08-18T01:37:00.036Z,7.00
2022-08-18T01:41:24.808Z,6.05
2022-08-18T01:42:23.366Z,6.43
2022-08-18T01:45:07.223Z,6.60
2022-08-18T01:47:53.280Z,6.28
2022-08-18T01:50:25.662Z,6.75
2022-08-18T01:53:01.383Z,7.15
2022-08-18T01:55:35.173Z,6.40
2022-08-18T01:58:13.664Z,6.78
2022-08-18T02:00:47.587Z,6.63
2022-08-18T02:03:22.343Z,7.18
2022-08-18T02:05:56.246Z,7.15
2022-08-18T02:08:30.301Z,6.35
2022-08-18T02:11:08.386Z,6.55
2022-08-18T02:13:40.331Z,6.47
2022-08-18T02:16:12.286Z,6.90
2022-08-18T02:18:48.298Z,6.80
2022-08-18T02:21:19.457Z,6.60
2022-08-18T02:23:54.201Z,6.60
2022-08-18T02:26:26.216Z,6.75
2022-08-18T02:28:58.045Z,7.05
2022-08-18T02:31:27.839Z,6.78
2022-08-18T02:33:59.750Z,7.50
2022-08-18T02:36:30.210Z,7.22
2022-08-18T02:39:04.548Z,7.80
2022-08-18T02:41:40.966Z,7.72
2022-08-18T02:44:15.408Z,6.30
2022-08-18T02:46:44.586Z,7.53
2022-08-18T02:49:14.023Z,5.93
2022-08-18T02:51:44.229Z,8.15
2022-08-18T02:54:15.752Z,7.13
2022-08-18T02:56:48.208Z,8.35
2022-08-18T02:59:41.408Z,7.60
2022-08-18T03:02:15.363Z,7.78
2022-08-18T03:04:49.839Z,7.88
2022-08-18T03:07:20.037Z,7.13
2022-08-18T03:09:51.332Z,8.25
2022-08-18T03:12:27.111Z,7.45
2022-08-18T03:15:03.043Z,7.90
2022-08-18T03:17:35.298Z,7.65
2022-08-18T03:20:09.055Z,7.95
2022-08-18T03:22:39.267Z,7.53
2022-08-18T03:25:11.198Z,7.65
2022-08-18T03:27:46.206Z,7.35
2022-08-18T03:30:22.142Z,7.95
2022-08-18T03:32:56.225Z,7.55
2022-08-18T03:35:25.092Z,7.45
2022-08-18T03:38:00.969Z,8.10
2022-08-18T03:40:31.847Z,7.90
2022-08-18T03:43:23.776Z,8.15
2022-08-18T03:46:00.739Z,7.13
2022-08-18T03:48:31.718Z,8.50
2022-08-18T03:51:33.275Z,7.40
2022-08-18T03:54:23.026Z,7.70
2022-08-18T03:57:09.230Z,7.93
2022-08-18T03:59:46.728Z,7.75
2022-08-18T04:02:16.894Z,7.32
2022-08-18T04:04:51.371Z,8.18
2022-08-18T04:07:26.897Z,8.20
2022-08-18T04:09:58.723Z,7.15
2022-08-18T04:12:28.737Z,6.78
2022-08-18T04:14:59.197Z,12.82
2022-08-18T04:17:29.765Z,12.45
2022-08-18T04:19:59.055Z,7.57
2022-08-18T04:22:29.693Z,8.95
2022-08-18T04:25:01.636Z,16.40
2022-08-18T04:27:31.700Z,12.88
2022-08-18T04:30:04.067Z,8.45
2022-08-18T04:32:39.494Z,9.02
2022-08-18T04:35:14.057Z,9.10
2022-08-18T04:37:49.058Z,11.13
2022-08-18T04:40:24.504Z,11.52
2022-08-18T04:42:54.791Z,9.40
2022-08-18T04:45:27.178Z,8.23
2022-08-18T04:48:04.652Z,12.77
2022-08-18T04:50:34.949Z,7.85
2022-08-18T04:53:22.441Z,8.35
2022-08-18T04:55:55.440Z,9.55
2022-08-18T04:58:30.750Z,10.77
2022-08-18T05:01:03.974Z,11.73
2022-08-18T05:03:36.034Z,10.48
2022-08-18T05:06:11.580Z,8.90
2022-08-18T05:08:45.475Z,8.98
2022-08-18T05:11:19.044Z,9.15
2022-08-18T05:13:53.823Z,9.05
2022-08-18T05:16:27.212Z,9.50
2022-08-18T05:18:56.709Z,8.30
2022-08-18T05:21:33.454Z,6.68
2022-08-18T05:24:06.700Z,7.95
2022-08-18T05:26:35.660Z,8.38
2022-08-18T05:29:17.810Z,7.57
2022-08-18T05:31:55.047Z,7.10
2022-08-18T05:34:27.599Z,7.82
2022-08-18T05:37:14.123Z,7.82
2022-08-18T05:39:58.219Z,6.93
2022-08-18T05:42:29.423Z,7.38
2022-08-18T05:44:59.252Z,7.63
2022-08-18T05:47:49.486Z,6.97
2022-08-18T05:50:21.613Z,7.88
2022-08-18T05:53:00.798Z,6.82
2022-08-18T05:55:54.804Z,7.32
2022-08-18T05:58:34.317Z,7.50
2022-08-18T06:01:09.575Z,6.32
2022-08-18T06:04:17.303Z,9.68
2022-08-18T06:07:11.433Z,6.85
2022-08-18T06:09:40.840Z,6.10
2022-08-18T06:12:38.193Z,7.22
2022-08-18T06:15:19.395Z,6.55
2022-08-18T06:18:22.636Z,6.53
2022-08-18T06:21:28.778Z,6.47
2022-08-18T06:24:26.178Z,7.30
2022-08-18T06:27:07.392Z,6.00
2022-08-18T06:29:55.304Z,5.53
2022-08-18T06:32:35.189Z,6.60
2022-08-18T06:35:14.154Z,5.78
2022-08-18T06:38:37.423Z,5.20
2022-08-18T06:41:40.601Z,5.45
2022-08-18T06:44:22.603Z,5.82
2022-08-18T06:47:05.266Z,7.28
2022-08-18T06:49:42.453Z,7.68
2022-08-18T06:52:39.430Z,7.07
2022-08-18T06:55:17.136Z,5.80
2022-08-18T06:58:29.250Z,6.07
2022-08-18T07:01:57.639Z,5.47
2022-08-18T07:05:15.177Z,8.45
2022-08-18T07:11:19.590Z,6.65
2022-08-18T07:14:15.487Z,6.03
2022-08-18T07:17:21.979Z,6.13
2022-08-18T07:20:25.868Z,6.97
2022-08-18T07:31:15.654Z,7.00
2022-08-18T07:33:31.529Z,6.95
2022-08-18T07:36:04.509Z,5.97
2022-08-18T07:38:43.767Z,5.80
2022-08-18T07:41:40.934Z,7.43
2022-08-18T07:44:56.817Z,5.82
2022-08-18T07:47:37.769Z,5.88
2022-08-18T07:50:27.227Z,5.88
2022-08-18T07:53:19.683Z,6.22
2022-08-18T07:55:53.610Z,6.60
2022-08-18T07:58:53.240Z,5.95
2022-08-18T08:01:41.297Z,7.82
2022-08-18T08:04:26.602Z,6.18
2022-08-18T08:07:28.216Z,5.82
2022-08-18T08:10:19.715Z,6.13
2022-08-18T08:13:09.731Z,6.05
2022-08-18T08:16:24.293Z,5.93
2022-08-18T08:19:12.226Z,5.60
2022-08-18T08:21:52.851Z,5.50
2022-08-18T08:24:28.383Z,6.18
2022-08-18T08:27:16.651Z,5.88
2022-08-18T08:30:20.282Z,7.57
2022-08-18T08:33:12.448Z,6.00
2022-08-18T08:35:51.493Z,6.10
2022-08-18T08:38:48.931Z,6.80
2022-08-18T08:41:30.028Z,5.53
2022-08-18T08:44:08.087Z,5.38
2022-08-18T08:46:54.095Z,6.05
2022-08-18T08:49:59.999Z,14.90
2022-08-18T08:52:56.661Z,5.63
2022-08-18T08:55:58.716Z,5.90
2022-08-18T08:58:46.141Z,6.20
2022-08-18T09:01:44.865Z,6.22
2022-08-18T09:04:54.857Z,5.77
2022-08-18T09:08:10.662Z,5.85
2022-08-18T09:11:05.244Z,20.92
2022-08-18T09:14:28.846Z,5.93
2022-08-18T09:17:36.303Z,5.70
2022-08-18T09:20:51.494Z,6.65
2022-08-18T09:23:49.764Z,5.85
2022-08-18T09:26:42.878Z,7.07
2022-08-18T09:29:16.956Z,5.90
2022-08-18T09:31:48.533Z,6.03
2022-08-18T09:34:45.541Z,6.00
2022-08-18T09:37:26.481Z,6.28
2022-08-18T09:43:34.635Z,6.95
2022-08-18T09:46:12.380Z,6.63
2022-08-18T09:48:45.294Z,6.30
2022-08-18T09:54:36.698Z,7.38
2022-08-18T09:57:25.328Z,5.93
2022-08-18T10:00:04.766Z,6.57
2022-08-18T10:02:33.124Z,6.60
2022-08-18T10:05:22.784Z,6.90
2022-08-18T10:08:06.250Z,6.15
2022-08-18T10:11:00.548Z,6.72
2022-08-18T10:13:56.557Z,6.25
2022-08-18T10:17:04.987Z,5.95
2022-08-18T10:22:11.623Z,5.55
2022-08-18T10:24:56.295Z,5.80
2022-08-18T10:27:45.022Z,5.60
2022-08-18T10:30:56.671Z,6.00
2022-08-18T10:34:19.011Z,6.20
2022-08-18T10:37:01.581Z,10.80
2022-08-18T10:39:41.788Z,6.35
2022-08-18T10:42:30.931Z,5.82
2022-08-18T10:45:32.886Z,5.47
2022-08-18T10:48:24.518Z,5.43
2022-08-18T10:51:06.061Z,5.60
2022-08-18T10:53:58.244Z,5.57
2022-08-18T10:56:48.008Z,5.38
2022-08-18T10:59:28.764Z,5.55
2022-08-18T11:02:07.891Z,5.45
2022-08-18T11:04:41.171Z,5.55
2022-08-18T11:11:32.508Z,5.47
2022-08-18T11:13:54.447Z,5.75
2022-08-18T11:16:43.941Z,5.65
2022-08-18T11:19:16.773Z,5.63
2022-08-18T11:21:53.906Z,4.90
2022-08-18T11:24:30.832Z,5.15
2022-08-18T11:27:09.780Z,5.00
2022-08-18T11:29:47.271Z,4.53
2022-08-18T11:32:32.373Z,5.20
2022-08-18T11:35:06.356Z,4.50
2022-08-18T11:37:51.426Z,4.43
2022-08-18T11:43:55.523Z,4.40
2022-08-18T11:46:34.858Z,5.00
2022-08-18T11:49:26.168Z,4.75
2022-08-18T11:52:09.096Z,4.13
2022-08-18T11:54:50.513Z,4.25
2022-08-18T11:58:01.035Z,4.10
2022-08-18T12:09:54.202Z,4.03
2022-08-18T12:12:28.694Z,4.07
2022-08-18T12:17:57.785Z,3.80
2022-08-18T12:20:31.510Z,4.60
2022-08-18T12:23:01.068Z,3.72
2022-08-18T12:25:34.516Z,4.18
2022-08-18T12:28:10.873Z,3.95
2022-08-18T12:30:48.226Z,4.05
2022-08-18T12:33:34.569Z,4.50
2022-08-18T12:36:21.072Z,3.85
2022-08-18T12:38:52.230Z,4.70
2022-08-18T12:41:29.883Z,3.83
2022-08-18T12:44:03.401Z,4.65
2022-08-18T12:46:46.347Z,4.40
2022-08-18T12:49:26.990Z,4.22
2022-08-18T12:51:56.704Z,4.43
2022-08-18T12:54:34.655Z,4.05
2022-08-18T12:57:04.675Z,5.90
2022-08-18T12:59:39.553Z,3.70
2022-08-18T13:02:12.727Z,3.80
2022-08-18T13:04:43.775Z,3.67
2022-08-18T13:07:19.056Z,3.53
2022-08-18T13:09:53.675Z,4.05
2022-08-18T13:12:29.028Z,4.00
2022-08-18T13:15:03.782Z,3.80
2022-08-18T13:18:04.494Z,3.58
2022-08-18T13:20:41.023Z,4.15
2022-08-18T13:23:13.863Z,4.22
2022-08-18T13:25:49.358Z,3.70
2022-08-18T13:28:23.715Z,3.60
2022-08-18T13:31:05.530Z,3.38
2022-08-18T13:33:56.829Z,3.63
2022-08-18T13:36:30.480Z,3.80
2022-08-18T13:39:02.341Z,5.47
2022-08-18T13:41:32.551Z,3.95
2022-08-18T13:44:02.993Z,4.15
2022-08-18T13:46:39.412Z,3.60
2022-08-18T13:49:15.407Z,3.90
2022-08-18T13:51:50.609Z,3.90
2022-08-18T13:54:31.359Z,4.25
2022-08-18T13:57:07.110Z,4.00
2022-08-18T13:59:46.494Z,3.75
2022-08-18T14:02:20.054Z,3.63
2022-08-18T14:04:57.034Z,3.80
2022-08-18T14:07:27.639Z,3.63
2022-08-18T14:10:04.922Z,4.00
2022-08-18T14:12:39.639Z,3.30
2022-08-18T14:15:18.026Z,3.30
2022-08-18T14:17:49.999Z,3.28
2022-08-18T14:20:38.028Z,3.80
2022-08-18T14:26:36.000Z,4.03
2022-08-18T14:29:06.502Z,6.18
2022-08-18T14:31:45.050Z,3.78
2022-08-18T14:34:15.908Z,3.50
2022-08-18T14:39:40.550Z,3.35
2022-08-18T14:42:32.846Z,3.70
2022-08-18T14:45:31.495Z,3.95
2022-08-18T14:48:07.398Z,3.70
2022-08-18T14:50:48.951Z,3.88
2022-08-18T14:55:59.257Z,5.65
2022-08-18T14:58:32.817Z,4.47
2022-08-18T15:01:10.590Z,3.55
2022-08-18T15:03:41.668Z,4.32
2022-08-18T15:06:17.060Z,3.90
2022-08-18T15:08:56.972Z,4.07
2022-08-18T15:11:26.713Z,3.72
2022-08-18T15:14:03.528Z,3.83
2022-08-18T15:16:39.798Z,3.80
2022-08-18T15:20:00.540Z,3.90
2022-08-18T15:22:17.924Z,3.75
2022-08-18T15:25:06.407Z,3.88
2022-08-18T15:27:44.069Z,3.75
2022-08-18T15:30:20.299Z,3.60
2022-08-18T15:32:54.264Z,3.95
2022-08-18T15:35:24.135Z,3.40
2022-08-18T15:37:58.970Z,3.38
2022-08-18T15:40:41.233Z,3.33
2022-08-18T15:43:10.822Z,3.70
2022-08-18T15:45:57.902Z,3.70
2022-08-18T15:48:31.370Z,3.85
2022-08-18T15:51:11.926Z,3.83
2022-08-18T15:53:45.654Z,3.78
2022-08-18T15:56:57.931Z,4.80
2022-08-18T15:59:39.702Z,11.38
2022-08-18T16:02:18.029Z,6.05
2022-08-18T16:04:53.413Z,3.78
2022-08-18T16:07:27.045Z,3.35
2022-08-18T16:10:13.155Z,3.05
2022-08-18T16:12:49.059Z,3.78
2022-08-18T16:15:23.395Z,3.60
2022-08-18T16:17:55.300Z,3.20
2022-08-18T16:20:25.583Z,3.00
2022-08-18T16:22:58.983Z,3.00
2022-08-18T16:25:29.960Z,3.60
2022-08-18T16:28:04.719Z,3.10
2022-08-18T16:30:34.423Z,3.45
2022-08-18T16:33:25.528Z,3.33
2022-08-18T16:35:56.497Z,3.55
2022-08-18T16:38:34.084Z,3.50
2022-08-18T16:41:13.918Z,3.70
2022-08-18T16:43:45.639Z,3.85
2022-08-18T16:46:27.961Z,3.63
2022-08-18T16:48:57.622Z,4.10
2022-08-18T16:53:56.931Z,3.65
2022-08-18T16:56:30.732Z,3.65
2022-08-18T16:59:19.227Z,3.40
2022-08-18T17:02:07.028Z,4.00
2022-08-18T17:04:41.574Z,3.75
2022-08-18T17:07:11.782Z,3.60
2022-08-18T17:09:46.501Z,4.82
2022-08-18T17:12:22.020Z,4.28
2022-08-18T17:14:57.863Z,3.58
2022-08-18T17:17:31.713Z,3.97
2022-08-18T17:20:11.143Z,3.28
2022-08-18T17:22:43.298Z,3.63
2022-08-18T17:25:14.754Z,2.85
2022-08-18T17:27:50.385Z,3.40
2022-08-18T17:30:26.050Z,3.45
2022-08-18T17:33:36.965Z,3.75
2022-08-18T17:38:59.687Z,3.20
2022-08-18T17:41:29.986Z,3.45
2022-08-18T17:44:01.869Z,3.15
2022-08-18T17:46:38.778Z,3.67
2022-08-18T17:50:26.523Z,3.47
2022-08-18T17:53:02.344Z,3.10
2022-08-18T17:55:34.501Z,3.70
2022-08-18T17:58:21.351Z,3.05
2022-08-18T18:00:57.822Z,3.53
2022-08-18T18:03:30.891Z,4.22
2022-08-18T18:06:12.643Z,3.72
2022-08-18T18:08:59.052Z,3.38
2022-08-18T18:11:50.448Z,3.35
2022-08-18T18:14:29.983Z,3.15
2022-08-18T18:17:16.160Z,4.30
2022-08-18T18:20:35.301Z,3.45
2022-08-18T18:23:48.463Z,3.33
2022-08-18T18:26:32.394Z,3.38
2022-08-18T18:29:23.787Z,3.53
2022-08-18T18:31:58.337Z,2.85
2022-08-18T18:34:49.701Z,3.17
2022-08-18T18:37:35.107Z,3.25
2022-08-18T18:40:11.373Z,3.90
2022-08-18T18:42:45.720Z,4.28
2022-08-18T18:45:44.164Z,3.30
2022-08-18T18:48:38.703Z,4.43
2022-08-18T18:51:10.383Z,3.97
2022-08-18T18:54:14.148Z,3.05
2022-08-18T18:56:53.885Z,3.13
2022-08-18T18:59:42.019Z,3.28
2022-08-18T19:02:33.878Z,3.53
2022-08-18T19:05:20.220Z,3.42
2022-08-18T19:08:01.546Z,3.38
2022-08-18T19:10:38.344Z,3.50
2022-08-18T19:13:30.374Z,2.97
2022-08-18T19:16:23.527Z,3.50
2022-08-18T19:19:35.978Z,3.22
2022-08-18T19:22:31.486Z,4.00
2022-08-18T19:25:15.901Z,3.67
2022-08-18T19:27:59.048Z,4.22
2022-08-18T19:30:33.314Z,3.70
2022-08-18T19:33:06.403Z,3.63
2022-08-18T19:35:50.979Z,3.83
2022-08-18T19:38:34.824Z,3.97
2022-08-18T19:41:19.825Z,3.58
2022-08-18T19:44:06.210Z,3.38
2022-08-18T19:46:43.288Z,4.82
2022-08-18T19:49:38.599Z,4.43
2022-08-18T19:52:46.404Z,3.72
2022-08-18T19:55:16.129Z,3.13
2022-08-18T19:57:56.112Z,3.75
2022-08-18T20:00:36.421Z,3.70
2022-08-18T20:03:45.342Z,3.58
2022-08-18T20:06:36.025Z,4.05
2022-08-18T20:09:13.156Z,4.05
2022-08-18T20:12:23.306Z,4.28
2022-08-18T20:15:20.702Z,4.13
2022-08-18T20:18:21.030Z,4.10
2022-08-18T20:21:18.977Z,5.10
2022-08-18T20:24:11.071Z,2.90
2022-08-18T20:26:40.370Z,3.70
2022-08-18T20:29:41.670Z,3.35
2022-08-18T20:32:31.522Z,3.38
2022-08-18T20:44:51.969Z,3.35
2022-08-18T20:47:42.823Z,3.27
2022-08-18T20:50:47.805Z,3.78
2022-08-18T20:53:36.581Z,3.25
2022-08-18T20:56:44.968Z,3.67
2022-08-18T20:59:35.330Z,2.58
2022-08-18T21:02:09.074Z,3.45
2022-08-18T21:04:55.076Z,3.90
2022-08-18T21:07:36.142Z,4.03
2022-08-18T21:10:13.550Z,3.75
2022-08-18T21:12:52.447Z,3.60
2022-08-18T21:15:35.166Z,3.90
2022-08-18T21:18:13.924Z,3.33
2022-08-18T21:20:45.504Z,3.28
2022-08-18T21:23:16.610Z,3.65
2022-08-18T21:26:00.399Z,3.28
2022-08-18T21:28:36.808Z,3.45
2022-08-18T21:33:58.636Z,3.35
2022-08-18T21:36:37.219Z,4.00
2022-08-18T21:39:15.940Z,2.90
2022-08-18T21:41:50.411Z,3.50
2022-08-18T21:44:34.213Z,3.13
2022-08-18T21:47:30.146Z,2.97
2022-08-18T21:50:19.938Z,3.58
2022-08-18T21:52:52.354Z,3.25
2022-08-18T21:55:26.371Z,3.00
2022-08-18T21:58:16.934Z,3.03
2022-08-18T22:01:09.025Z,3.00
2022-08-18T22:04:04.577Z,2.70
2022-08-18T22:06:34.344Z,3.13
2022-08-18T22:09:28.019Z,2.90
2022-08-18T22:12:52.737Z,3.22
2022-08-18T22:15:25.413Z,4.20
2022-08-18T22:18:00.446Z,3.10
2022-08-18T22:20:56.520Z,2.97
2022-08-18T22:23:48.677Z,3.25
2022-08-18T22:26:18.016Z,3.15
2022-08-18T22:28:56.320Z,3.33
2022-08-18T22:31:30.050Z,3.10
2022-08-18T22:34:27.238Z,5.45
2022-08-18T22:37:02.337Z,3.30
2022-08-18T22:39:33.153Z,3.80
2022-08-18T22:42:03.938Z,3.33
2022-08-18T22:44:35.827Z,2.88
2022-08-18T22:47:06.882Z,3.63
2022-08-18T22:49:42.142Z,3.42
2022-08-18T22:52:30.399Z,3.10
2022-08-18T22:55:06.956Z,3.13
2022-08-18T22:57:42.034Z,3.78
2022-08-18T23:00:19.557Z,3.72
2022-08-18T23:02:55.413Z,3.63
2022-08-18T23:05:25.537Z,3.40
2022-08-18T23:07:58.427Z,3.17
2022-08-18T23:10:34.429Z,3.17
2022-08-18T23:13:06.276Z,3.90
2022-08-18T23:15:42.605Z,3.95
2022-08-18T23:18:13.855Z,4.32
2022-08-18T23:20:49.254Z,3.70
2022-08-18T23:23:25.160Z,3.47
2022-08-18T23:26:01.159Z,3.58
2022-08-18T23:28:32.097Z,3.83
2022-08-18T23:31:03.684Z,3.55
2022-08-18T23:33:40.896Z,3.85
2022-08-18T23:36:13.598Z,3.60
2022-08-18T23:38:47.443Z,3.25
2022-08-18T23:41:17.031Z,3.70
2022-08-18T23:43:48.135Z,3.72
2022-08-18T23:46:26.941Z,3.90
2022-08-18T23:49:04.446Z,4.03
2022-08-18T23:51:40.871Z,4.70
2022-08-18T23:54:12.163Z,3.88
2022-08-18T23:56:46.507Z,3.33
2022-08-18T23:59:16.975Z,4.00
